createdAt,value
2018-06-23T14:37:46.252Z,17.63
2018-06-23T14:43:09.965Z,8.47
2018-06-23T14:45:39.132Z,5.00
2018-06-23T14:48:08.257Z,4.77
2018-06-23T15:05:47.446Z,2.20
2018-06-23T15:08:34.038Z,6.40
2018-06-23T15:11:20.464Z,7.53
2018-06-23T15:13:49.678Z,4.70
2018-06-23T15:16:19.147Z,3.63
2018-06-23T15:18:48.313Z,6.63
2018-06-23T15:21:17.482Z,6.60
2018-06-23T15:23:49.122Z,6.10
2018-06-23T15:26:18.394Z,6.07
2018-06-23T15:28:48.916Z,8.00
2018-06-23T15:31:21.405Z,2.50
2018-06-23T15:33:51.946Z,3.20
2018-06-23T15:36:22.529Z,2.43
2018-06-23T15:38:54.360Z,8.37
2018-06-23T15:41:24.530Z,4.00
2018-06-23T15:43:55.995Z,3.30
2018-06-23T15:46:27.647Z,5.87
2018-06-23T15:48:57.996Z,3.57
2018-06-23T15:51:29.799Z,4.30
2018-06-23T15:54:00.122Z,5.20
2018-06-23T15:56:30.831Z,7.70
2018-06-23T15:59:01.262Z,6.10
2018-06-23T16:01:33.772Z,6.70
2018-06-23T16:04:04.436Z,4.47
2018-06-23T16:06:34.351Z,8.27
2018-06-23T16:09:06.769Z,6.60
2018-06-23T16:11:37.872Z,6.27
2018-06-23T16:14:07.055Z,8.13
2018-06-23T16:16:36.501Z,7.13
2018-06-23T16:19:06.167Z,7.43
2018-06-23T16:21:35.389Z,6.23
2018-06-23T16:24:04.619Z,11.80
2018-06-23T16:26:33.790Z,10.73
2018-06-23T16:29:03.176Z,6.60
2018-06-23T16:31:32.343Z,8.73
2018-06-23T16:34:01.502Z,3.63
2018-06-23T16:36:30.724Z,6.70
2018-06-23T16:38:59.929Z,3.23
2018-06-23T16:41:29.105Z,5.00
2018-06-23T16:43:58.489Z,4.87
2018-06-23T16:46:27.643Z,3.53
2018-06-23T16:48:57.165Z,4.60
2018-06-23T16:51:26.462Z,5.83
2018-06-23T16:53:55.639Z,9.10
2018-06-23T16:56:24.811Z,4.53
2018-06-23T16:58:54.203Z,4.83
2018-06-23T17:01:23.492Z,4.83
2018-06-23T17:03:52.782Z,5.23
2018-06-23T17:06:21.892Z,2.80
2018-06-23T17:08:51.150Z,3.00
2018-06-23T17:11:20.432Z,2.23
2018-06-23T17:13:49.667Z,2.83
2018-06-23T17:16:18.842Z,14.27
2018-06-23T17:18:47.953Z,6.40
2018-06-23T17:21:17.081Z,2.20
2018-06-23T17:23:46.244Z,4.03
2018-06-23T17:26:15.365Z,4.57
2018-06-23T17:28:44.524Z,5.63
2018-06-23T17:31:13.739Z,7.23
2018-06-23T17:33:42.962Z,4.17
2018-06-23T17:36:12.157Z,5.33
2018-06-23T17:38:41.387Z,5.17
2018-06-23T17:41:10.633Z,3.20
2018-06-23T17:43:39.796Z,4.43
2018-06-23T17:46:08.966Z,6.00
2018-06-23T17:48:38.129Z,3.07
2018-06-23T17:51:07.972Z,6.90
2018-06-23T17:53:37.115Z,5.73
2018-06-23T17:56:06.326Z,2.27
2018-06-23T17:58:35.423Z,3.10
2018-06-23T18:01:04.631Z,5.73
2018-06-23T18:03:33.849Z,4.37
2018-06-23T18:06:03.172Z,4.03
2018-06-23T18:08:32.352Z,7.50
2018-06-23T18:11:01.576Z,2.40
2018-06-23T18:13:30.828Z,3.07
2018-06-23T18:16:00.214Z,3.13
2018-06-23T18:18:29.441Z,2.37
2018-06-23T18:20:58.687Z,3.07
2018-06-23T18:23:27.824Z,2.80
2018-06-23T18:25:57.338Z,3.83
2018-06-23T18:28:26.503Z,1.90
2018-06-23T18:30:55.741Z,2.60
2018-06-23T18:33:25.093Z,2.27
2018-06-23T18:35:54.306Z,2.93
2018-06-23T18:38:23.482Z,3.47
2018-06-23T18:40:52.683Z,2.57
2018-06-23T18:43:21.667Z,2.47
2018-06-23T18:45:50.870Z,3.17
2018-06-23T18:48:20.109Z,2.80
2018-06-23T18:50:49.322Z,2.80
2018-06-23T18:53:18.546Z,2.70
2018-06-23T18:55:47.792Z,2.80
2018-06-23T18:58:17.066Z,2.00
2018-06-23T19:00:46.251Z,1.70
2018-06-23T19:03:15.476Z,2.90
2018-06-23T19:05:44.666Z,1.87
2018-06-23T19:08:13.870Z,3.23
2018-06-23T19:10:43.107Z,2.60
2018-06-23T19:13:12.292Z,4.60
2018-06-23T19:15:41.665Z,2.60
2018-06-23T19:18:10.839Z,6.23
2018-06-23T19:20:40.215Z,1.60
2018-06-23T19:23:09.379Z,1.67
2018-06-23T19:25:38.600Z,1.40
2018-06-23T19:28:07.769Z,1.40
2018-06-23T19:30:36.997Z,1.53
2018-06-23T19:33:06.251Z,2.60
2018-06-23T19:35:35.629Z,1.17
2018-06-23T19:38:04.857Z,1.80
2018-06-23T19:40:34.190Z,2.50
2018-06-23T19:43:03.389Z,1.47
2018-06-23T19:45:32.603Z,1.20
2018-06-23T19:48:01.759Z,1.17
2018-06-23T19:50:31.090Z,1.70
2018-06-23T19:53:00.421Z,1.50
2018-06-23T19:55:29.581Z,1.70
2018-06-23T19:57:58.802Z,2.13
2018-06-23T20:00:28.297Z,2.30
2018-06-23T20:02:57.472Z,3.13
2018-06-23T20:05:26.800Z,3.00
2018-06-23T20:07:56.044Z,2.70
2018-06-23T20:10:25.381Z,2.83
2018-06-23T20:12:54.707Z,4.77
2018-06-23T20:15:24.094Z,5.13
2018-06-23T20:17:53.402Z,7.50
2018-06-23T20:20:22.760Z,2.93
2018-06-23T20:22:52.018Z,3.20
2018-06-23T20:25:21.283Z,3.30
2018-06-23T20:27:50.538Z,3.40
2018-06-23T20:30:19.794Z,4.03
2018-06-23T20:32:49.023Z,2.70
2018-06-23T20:35:18.364Z,3.20
2018-06-23T20:37:47.606Z,3.90
2018-06-23T20:40:16.785Z,3.57
2018-06-23T20:42:46.083Z,3.60
2018-06-23T20:45:15.346Z,3.43
2018-06-23T20:47:44.619Z,3.80
2018-06-23T20:50:13.937Z,4.00
2018-06-23T20:52:43.135Z,3.47
2018-06-23T20:55:12.274Z,4.50
2018-06-23T20:57:41.509Z,3.90
2018-06-23T21:00:10.657Z,3.10
2018-06-23T21:02:39.839Z,3.47
2018-06-23T21:05:09.013Z,4.07
2018-06-23T21:07:38.401Z,4.93
2018-06-23T21:10:07.608Z,4.00
2018-06-23T21:12:36.759Z,4.67
2018-06-23T21:15:05.984Z,4.93
2018-06-23T21:17:35.212Z,5.73
2018-06-23T21:20:04.377Z,4.60
2018-06-23T21:22:33.558Z,5.80
2018-06-23T21:25:02.977Z,9.20
2018-06-23T21:27:32.188Z,5.80
2018-06-23T21:30:01.338Z,6.40
2018-06-23T21:32:30.346Z,16.80
2018-06-23T21:34:59.944Z,18.97
2018-06-23T21:37:29.136Z,9.40
2018-06-23T21:39:58.440Z,7.60
2018-06-23T21:42:27.578Z,6.20
2018-06-23T21:44:56.976Z,9.87
2018-06-23T21:47:26.360Z,6.97
2018-06-23T21:49:55.509Z,10.93
2018-06-23T21:52:24.688Z,24.80
2018-06-23T21:54:53.859Z,11.40
2018-06-23T21:57:22.994Z,7.90
2018-06-23T21:59:52.172Z,7.47
2018-06-23T22:02:21.346Z,12.10
2018-06-23T22:04:50.540Z,6.77
2018-06-23T22:07:19.768Z,13.63
2018-06-23T22:09:48.958Z,7.13
2018-06-23T22:12:18.203Z,7.03
2018-06-23T22:14:47.415Z,7.80
2018-06-23T22:17:16.617Z,11.00
2018-06-23T22:19:45.721Z,7.03
2018-06-23T22:22:14.857Z,7.40
2018-06-23T22:24:44.010Z,10.17
2018-06-23T22:27:13.258Z,8.20
2018-06-23T22:29:42.573Z,9.30
2018-06-23T22:32:11.673Z,10.97
2018-06-23T22:34:40.834Z,12.07
2018-06-23T22:37:09.972Z,7.10
2018-06-23T22:39:39.128Z,7.30
2018-06-23T22:42:08.305Z,8.23
2018-06-23T22:44:37.481Z,8.00
2018-06-23T22:47:06.731Z,10.10
2018-06-23T22:49:36.851Z,10.17
2018-06-23T22:52:06.226Z,12.07
2018-06-23T22:54:35.456Z,9.30
2018-06-23T22:57:04.688Z,11.50
2018-06-23T22:59:33.817Z,7.70
2018-06-23T23:02:02.984Z,7.07
2018-06-23T23:04:35.240Z,7.90
2018-06-23T23:07:04.610Z,8.83
2018-06-23T23:09:33.743Z,14.20
2018-06-23T23:12:03.419Z,7.27
2018-06-23T23:14:32.647Z,6.70
2018-06-23T23:17:01.795Z,7.10
2018-06-23T23:19:30.982Z,11.80
2018-06-23T23:22:00.345Z,6.80
2018-06-23T23:24:29.499Z,6.53
2018-06-23T23:26:58.696Z,9.53
2018-06-23T23:29:27.817Z,6.43
2018-06-23T23:31:56.981Z,7.97
2018-06-23T23:34:26.136Z,14.93
2018-06-23T23:36:55.385Z,12.20
2018-06-23T23:39:24.544Z,5.70
2018-06-23T23:41:53.692Z,5.77
2018-06-23T23:44:22.883Z,8.73
2018-06-23T23:46:52.073Z,7.00
2018-06-23T23:49:21.275Z,6.40
2018-06-23T23:51:50.489Z,6.80
2018-06-23T23:54:19.670Z,5.17
2018-06-23T23:56:48.881Z,5.60
2018-06-23T23:59:18.059Z,5.87
